Time;durP1;ratioP1;P1;durP2;ratioP2;P2;SDS_P1;SDS_P2;PMS_P1;PMS_P2;Temp;Humidity;BMP_temperature;BMP_pressure;BME280_temperature;BME280_humidity;BME280_pressure;Samples;Min_cycle;Max_cycle;Signal;HPM_P1;HPM_P2
2023/04/24 00:00:10;;;;;;;0.00;0.00;;;9.80;99.90;;;;;;6215072;23;20115;-83
2023/04/24 00:02:39;;;;;;;0.10;0.10;;;9.70;99.90;;;;;;6189686;23;20035;-83
2023/04/24 00:05:06;;;;;;;0.17;0.10;;;9.70;99.90;;;;;;6190005;23;20021;-83
2023/04/24 00:07:32;;;;;;;0.00;0.00;;;9.70;99.90;;;;;;6214433;23;20016;-83
2023/04/24 00:09:58;;;;;;;0.00;0.00;;;9.70;99.90;;;;;;6165359;23;20021;-83
2023/04/24 00:12:25;;;;;;;0.10;0.00;;;9.70;99.90;;;;;;6214585;23;20507;-83
2023/04/24 00:14:51;;;;;;;0.00;0.00;;;9.60;99.90;;;;;;6189468;23;20087;-84
2023/04/24 00:17:19;;;;;;;0.00;0.00;;;9.60;99.90;;;;;;6214520;23;20059;-83
2023/04/24 00:19:46;;;;;;;0.00;0.00;;;9.60;99.90;;;;;;6214721;23;20488;-83
2023/04/24 00:22:13;;;;;;;0.00;0.00;;;9.50;99.90;;;;;;6189446;23;20100;-83
2023/04/24 00:24:39;;;;;;;0.00;0.00;;;9.60;99.90;;;;;;6214160;23;20526;-83
2023/04/24 00:27:05;;;;;;;0.10;0.10;;;9.60;99.90;;;;;;6164116;23;20342;-83
2023/04/24 00:29:30;;;;;;;0.00;0.00;;;9.60;99.90;;;;;;6214401;23;20017;-83
2023/04/24 00:31:57;;;;;;;0.00;0.00;;;9.60;99.90;;;;;;6214815;23;20067;-83
2023/04/24 00:34:22;;;;;;;0.10;0.10;;;9.60;99.90;;;;;;6214149;23;20024;-83
2023/04/24 00:36:52;;;;;;;0.10;0.10;;;9.60;99.90;;;;;;6216605;23;20021;-83
2023/04/24 00:39:21;;;;;;;0.50;0.17;;;9.60;99.90;;;;;;6214776;23;20239;-83
2023/04/24 00:41:48;;;;;;;0.45;0.45;;;9.60;99.90;;;;;;6215942;23;20025;-83
2023/04/24 00:44:14;;;;;;;0.10;0.10;;;9.50;99.90;;;;;;6214623;23;20099;-83
2023/04/24 00:46:40;;;;;;;0.00;0.00;;;9.50;99.90;;;;;;6213888;23;20012;-83
2023/04/24 00:49:06;;;;;;;0.43;0.10;;;9.50;99.90;;;;;;6189279;23;20021;-83
2023/04/24 00:51:32;;;;;;;0.27;0.00;;;9.50;99.90;;;;;;6189039;23;20012;-83
2023/04/24 00:54:01;;;;;;;0.10;0.10;;;9.50;99.90;;;;;;6214088;23;20437;-84
2023/04/24 00:56:28;;;;;;;0.00;0.00;;;9.50;99.90;;;;;;6188373;23;20074;-83
2023/04/24 00:58:55;;;;;;;0.00;0.00;;;9.50;99.90;;;;;;6189306;23;20026;-83
2023/04/24 01:01:21;;;;;;;;;;;9.50;99.90;;;;;;6213741;23;20055;-83
2023/04/24 01:03:50;;;;;;;0.00;0.00;;;9.50;99.90;;;;;;6188854;23;19920;-83
2023/04/24 01:06:18;;;;;;;1.55;0.20;;;9.50;99.90;;;;;;6214418;23;20020;-83
2023/04/24 01:08:45;;;;;;;0.40;0.25;;;9.50;99.90;;;;;;6213797;23;20016;-83
2023/04/24 01:11:11;;;;;;;0.17;0.10;;;9.40;99.90;;;;;;6188842;23;20062;-83
2023/04/24 01:13:37;;;;;;;0.10;0.10;;;9.50;99.90;;;;;;6163976;23;20457;-83
2023/04/24 01:16:03;;;;;;;0.10;0.10;;;9.40;99.90;;;;;;6214121;23;20048;-83
2023/04/24 01:18:28;;;;;;;0.00;0.00;;;9.50;99.90;;;;;;6189124;23;20020;-84
2023/04/24 01:20:57;;;;;;;0.00;0.00;;;9.40;99.90;;;;;;6214164;23;20239;-83
2023/04/24 01:23:23;;;;;;;0.32;0.17;;;9.50;99.90;;;;;;6188936;23;20020;-83
2023/04/24 01:25:49;;;;;;;0.10;0.10;;;9.40;99.90;;;;;;6213241;23;20020;-83
2023/04/24 01:28:16;;;;;;;0.00;0.00;;;9.50;99.90;;;;;;6189063;23;20248;-83
2023/04/24 01:30:42;;;;;;;0.00;0.00;;;9.40;99.90;;;;;;6213880;23;20090;-83
2023/04/24 01:33:07;;;;;;;0.10;0.10;;;9.40;99.90;;;;;;6213876;23;20017;-83
2023/04/24 01:35:34;;;;;;;0.43;0.37;;;9.40;99.90;;;;;;6188756;23;20025;-83
2023/04/24 01:38:00;;;;;;;0.85;0.38;;;9.40;99.90;;;;;;6189009;23;20024;-83
2023/04/24 01:40:25;;;;;;;0.30;0.23;;;9.40;99.90;;;;;;6189363;23;20511;-82
2023/04/24 01:42:52;;;;;;;0.80;0.30;;;9.30;99.90;;;;;;6188638;23;20017;-84
2023/04/24 01:45:17;;;;;;;0.68;0.35;;;9.40;99.90;;;;;;6189179;23;20028;-83
2023/04/24 01:47:45;;;;;;;0.20;0.20;;;9.40;99.90;;;;;;6213622;23;20012;-83
2023/04/24 01:50:10;;;;;;;0.43;0.22;;;9.30;99.90;;;;;;6214496;23;20091;-83
2023/04/24 01:52:36;;;;;;;0.10;0.10;;;9.30;99.90;;;;;;6163443;23;20457;-84
2023/04/24 01:55:06;;;;;;;0.33;0.23;;;9.30;99.90;;;;;;6213869;23;20096;-84
2023/04/24 01:57:33;;;;;;;0.68;0.50;;;9.40;99.90;;;;;;6188833;23;20023;-83
2023/04/24 01:59:59;;;;;;;0.47;0.17;;;9.40;99.90;;;;;;6215308;23;20019;-83
2023/04/24 02:02:27;;;;;;;1.07;0.50;;;9.40;99.90;;;;;;6213726;23;20095;-83
2023/04/24 02:04:56;;;;;;;0.30;0.30;;;9.40;99.90;;;;;;6188543;23;20111;-83
2023/04/24 02:07:22;;;;;;;0.28;0.28;;;9.40;99.90;;;;;;6188914;23;20067;-83
2023/04/24 02:09:48;;;;;;;0.23;0.23;;;9.40;99.90;;;;;;6188427;23;20016;-83
2023/04/24 02:12:19;;;;;;;0.50;0.50;;;9.40;99.90;;;;;;6213577;23;20333;-83
2023/04/24 02:14:45;;;;;;;0.35;0.35;;;9.40;99.90;;;;;;6213588;23;20017;-83
2023/04/24 02:17:12;;;;;;;2.97;0.50;;;9.40;99.90;;;;;;6188768;23;20016;-83
2023/04/24 02:19:39;;;;;;;0.40;0.40;;;9.40;99.90;;;;;;6164168;23;20020;-82
2023/04/24 02:22:04;;;;;;;0.30;0.30;;;9.40;99.90;;;;;;6163999;23;20095;-82
2023/04/24 02:24:30;;;;;;;1.07;0.50;;;9.40;99.90;;;;;;6213748;23;20051;-82
2023/04/24 02:26:56;;;;;;;0.90;0.40;;;9.40;99.90;;;;;;6162524;23;20076;-83
2023/04/24 02:29:22;;;;;;;0.20;0.20;;;9.30;99.90;;;;;;6213217;23;20017;-83
2023/04/24 02:31:48;;;;;;;0.50;0.47;;;9.30;99.90;;;;;;6213247;23;20020;-83
2023/04/24 02:34:14;;;;;;;0.63;0.30;;;9.30;99.90;;;;;;6215243;23;20017;-83
2023/04/24 02:36:42;;;;;;;1.03;0.57;;;9.30;99.90;;;;;;6188464;23;20096;-84
2023/04/24 02:39:08;;;;;;;0.65;0.65;;;9.20;99.90;;;;;;6213558;23;20016;-82
2023/04/24 02:41:33;;;;;;;0.53;0.40;;;9.20;99.90;;;;;;6188383;23;20460;-83
2023/04/24 02:43:59;;;;;;;1.07;0.40;;;9.20;99.90;;;;;;6187919;23;20017;-83
2023/04/24 02:46:26;;;;;;;1.10;0.40;;;9.10;99.90;;;;;;6213647;23;20019;-82
2023/04/24 02:48:51;;;;;;;1.30;0.50;;;9.10;99.90;;;;;;6213131;23;20016;-83
2023/04/24 02:51:17;;;;;;;0.63;0.37;;;9.10;99.90;;;;;;6214972;23;20016;-83
2023/04/24 02:53:43;;;;;;;0.43;0.43;;;9.10;99.90;;;;;;6214664;23;20099;-84
2023/04/24 02:56:12;;;;;;;1.13;0.23;;;9.10;99.90;;;;;;6189861;23;20034;-83
2023/04/24 02:58:37;;;;;;;0.95;0.63;;;9.10;99.90;;;;;;6216566;23;20553;-83
2023/04/24 03:01:03;;;;;;;1.33;0.47;;;9.10;99.90;;;;;;6169637;23;20096;-82
2023/04/24 03:03:30;;;;;;;0.30;0.30;;;9.00;99.90;;;;;;6220781;23;20021;-83
2023/04/24 03:05:56;;;;;;;0.38;0.35;;;9.00;99.90;;;;;;6195150;23;20095;-82
2023/04/24 03:08:22;;;;;;;0.55;0.38;;;9.00;99.90;;;;;;6194928;23;20066;-82
2023/04/24 03:10:48;;;;;;;0.70;0.57;;;9.00;99.90;;;;;;6220027;23;20024;-83
2023/04/24 03:13:15;;;;;;;1.07;0.60;;;9.00;99.90;;;;;;6247188;23;20055;-83
2023/04/24 03:15:40;;;;;;;;;;;9.00;99.90;;;;;;6220882;23;20428;-88
2023/04/24 03:18:06;;;;;;;0.35;0.20;;;9.00;99.90;;;;;;6170208;23;19919;-83
2023/04/24 03:20:32;;;;;;;0.50;0.40;;;9.00;99.90;;;;;;6195242;23;20012;-83
2023/04/24 03:22:57;;;;;;;0.50;0.50;;;8.90;99.90;;;;;;6219619;23;20514;-83
2023/04/24 03:25:23;;;;;;;0.43;0.43;;;8.90;99.90;;;;;;6220284;23;20023;-83
2023/04/24 03:27:49;;;;;;;1.07;0.60;;;8.90;99.90;;;;;;6219449;23;20023;-83
2023/04/24 03:30:14;;;;;;;0.90;0.43;;;8.90;99.90;;;;;;6220262;23;20460;-82
2023/04/24 03:32:40;;;;;;;0.67;0.30;;;8.90;99.90;;;;;;6195673;23;20024;-83
2023/04/24 03:35:09;;;;;;;0.50;0.37;;;8.90;99.90;;;;;;6219629;23;20024;-82
2023/04/24 03:37:35;;;;;;;0.40;0.40;;;8.90;99.90;;;;;;6219794;23;20528;-82
2023/04/24 03:40:01;;;;;;;0.40;0.40;;;8.90;99.90;;;;;;6194779;23;20048;-82
2023/04/24 03:42:27;;;;;;;1.15;0.43;;;8.90;99.90;;;;;;6195323;23;20091;-82
2023/04/24 03:44:53;;;;;;;0.50;0.50;;;8.90;99.90;;;;;;6194834;23;20453;-83
2023/04/24 03:47:18;;;;;;;1.07;0.77;;;8.90;99.90;;;;;;6195188;23;20069;-83
2023/04/24 03:49:44;;;;;;;1.00;0.23;;;8.90;99.90;;;;;;6194746;23;20015;-83
2023/04/24 03:52:10;;;;;;;0.97;0.40;;;8.90;99.90;;;;;;6246571;23;20074;-82
2023/04/24 03:54:35;;;;;;;0.87;0.27;;;8.80;99.90;;;;;;6195282;23;20348;-82
2023/04/24 03:57:01;;;;;;;0.33;0.33;;;8.80;99.90;;;;;;6194301;23;20047;-83
2023/04/24 03:59:28;;;;;;;0.85;0.40;;;8.90;99.90;;;;;;6219614;23;20391;-82
2023/04/24 04:01:54;;;;;;;0.97;0.50;;;8.80;99.90;;;;;;6219062;23;20020;-82
2023/04/24 04:04:20;;;;;;;1.40;0.40;;;8.80;99.90;;;;;;6194850;23;20020;-82
2023/04/24 04:06:46;;;;;;;0.30;0.30;;;8.80;99.90;;;;;;6194913;23;20105;-82
2023/04/24 04:09:12;;;;;;;1.52;0.50;;;8.80;99.90;;;;;;6194394;23;20020;-83
2023/04/24 04:11:38;;;;;;;1.17;0.50;;;8.80;99.90;;;;;;6194623;23;20019;-82
2023/04/24 04:14:03;;;;;;;0.17;0.13;;;8.80;99.90;;;;;;6219070;23;20330;-82
2023/04/24 04:16:29;;;;;;;0.10;0.10;;;8.80;99.90;;;;;;6246278;23;20091;-82
2023/04/24 04:18:55;;;;;;;0.23;0.20;;;8.80;99.90;;;;;;6219424;23;20023;-82
2023/04/24 04:21:21;;;;;;;0.17;0.17;;;8.80;99.90;;;;;;6219714;23;20028;-82
2023/04/24 04:23:47;;;;;;;0.23;0.23;;;8.80;99.90;;;;;;6194669;23;20024;-82
2023/04/24 04:26:13;;;;;;;0.20;0.20;;;8.80;99.90;;;;;;6218991;23;20016;-82
2023/04/24 04:28:39;;;;;;;0.10;0.10;;;8.80;99.90;;;;;;6219806;23;20021;-83
2023/04/24 04:31:07;;;;;;;0.13;0.13;;;8.80;99.90;;;;;;6169488;23;20012;-83
2023/04/24 04:33:33;;;;;;;0.20;0.20;;;8.80;99.90;;;;;;6194661;23;20016;-83
2023/04/24 04:35:59;;;;;;;0.40;0.30;;;8.80;99.90;;;;;;6194079;23;20020;-84
2023/04/24 04:38:29;;;;;;;0.70;0.70;;;8.80;99.90;;;;;;6246141;23;20296;-82
2023/04/24 04:40:58;;;;;;;0.20;0.20;;;8.80;99.90;;;;;;6194293;23;20023;-83
2023/04/24 04:43:24;;;;;;;0.13;0.13;;;8.80;99.90;;;;;;6220213;23;20318;-82
2023/04/24 04:45:51;;;;;;;0.08;0.03;;;8.80;99.90;;;;;;6169918;23;20012;-82
2023/04/24 04:48:18;;;;;;;0.00;0.00;;;8.80;99.90;;;;;;6194008;23;20463;-82
2023/04/24 04:50:45;;;;;;;0.10;0.10;;;8.80;99.90;;;;;;6194105;23;20043;-82
2023/04/24 04:53:10;;;;;;;0.20;0.10;;;8.80;99.90;;;;;;6219117;23;20058;-82
2023/04/24 04:55:37;;;;;;;0.00;0.00;;;8.80;99.90;;;;;;6194428;23;20444;-82
2023/04/24 04:58:02;;;;;;;0.00;0.00;;;8.80;99.90;;;;;;6218662;23;20018;-83
2023/04/24 05:00:33;;;;;;;0.57;0.10;;;8.70;99.90;;;;;;6193727;23;20389;-83
2023/04/24 05:02:59;;;;;;;0.20;0.10;;;8.70;99.90;;;;;;6218444;23;20356;-83
2023/04/24 05:05:25;;;;;;;0.00;0.00;;;8.70;99.90;;;;;;6169791;23;20020;-83
2023/04/24 05:07:51;;;;;;;0.00;0.00;;;8.70;99.90;;;;;;6219730;23;20016;-83
2023/04/24 05:10:17;;;;;;;0.03;0.03;;;8.70;99.90;;;;;;6193991;23;20099;-83
2023/04/24 05:12:43;;;;;;;0.20;0.20;;;8.70;99.90;;;;;;6218860;23;20070;-83
2023/04/24 05:15:09;;;;;;;0.63;0.20;;;8.70;99.90;;;;;;6218816;23;20471;-83
2023/04/24 05:17:35;;;;;;;0.52;0.10;;;8.80;99.90;;;;;;6219584;23;20024;-84
2023/04/24 05:20:01;;;;;;;0.43;0.27;;;8.70;99.90;;;;;;6220421;23;20016;-83
2023/04/24 05:22:27;;;;;;;0.65;0.47;;;8.70;99.90;;;;;;6218949;23;20242;-82
2023/04/24 05:24:53;;;;;;;0.40;0.40;;;8.80;99.90;;;;;;6246345;23;20020;-82
2023/04/24 05:27:19;;;;;;;0.20;0.20;;;8.80;99.90;;;;;;6245574;23;20083;-82
2023/04/24 05:29:45;;;;;;;0.00;0.00;;;8.70;99.90;;;;;;6219343;23;20019;-88
2023/04/24 05:32:10;;;;;;;0.03;0.03;;;8.70;99.90;;;;;;6245123;23;20016;-83
2023/04/24 05:34:36;;;;;;;0.20;0.20;;;8.70;99.90;;;;;;6194511;23;20020;-83
2023/04/24 05:37:03;;;;;;;0.30;0.30;;;8.70;99.90;;;;;;6245250;23;20020;-83
2023/04/24 05:39:28;;;;;;;0.10;0.10;;;8.60;99.90;;;;;;6219458;23;20054;-82
2023/04/24 05:41:57;;;;;;;0.20;0.20;;;8.60;99.90;;;;;;6246139;23;20020;-82
2023/04/24 05:44:23;;;;;;;0.05;0.00;;;8.60;99.90;;;;;;6194372;23;20051;-82
2023/04/24 05:46:49;;;;;;;0.77;0.47;;;8.60;99.90;;;;;;6194402;23;20336;-82
2023/04/24 05:49:17;;;;;;;0.13;0.13;;;8.60;99.90;;;;;;6194872;23;20071;-85
2023/04/24 05:51:43;;;;;;;0.27;0.20;;;8.60;99.90;;;;;;6169257;23;20012;-83
2023/04/24 05:54:11;;;;;;;0.20;0.20;;;8.60;99.90;;;;;;6218701;23;20020;-83
2023/04/24 05:56:42;;;;;;;0.15;0.15;;;8.50;99.90;;;;;;6245037;23;20453;-84
2023/04/24 05:59:11;;;;;;;0.30;0.10;;;8.60;99.90;;;;;;6217841;23;20019;-83
2023/04/24 06:01:38;;;;;;;0.20;0.20;;;8.60;99.90;;;;;;6244749;23;20090;-84
2023/04/24 06:04:04;;;;;;;1.08;0.05;;;8.80;99.90;;;;;;6193216;23;20023;-85
2023/04/24 06:06:31;;;;;;;0.10;0.10;;;8.60;99.90;;;;;;6218584;23;20016;-83
2023/04/24 06:09:03;;;;;;;0.10;0.10;;;8.60;99.90;;;;;;6193601;23;20442;-83
2023/04/24 06:11:37;;;;;;;0.15;0.15;;;8.60;99.90;;;;;;6221298;23;20012;-84
2023/04/24 06:14:03;;;;;;;0.40;0.17;;;8.60;99.90;;;;;;6193997;23;20020;-93
2023/04/24 06:16:30;;;;;;;0.33;0.20;;;8.70;99.90;;;;;;6218513;23;20012;-84
2023/04/24 06:18:56;;;;;;;1.00;0.20;;;8.70;99.90;;;;;;6218648;23;20050;-81
2023/04/24 06:21:22;;;;;;;0.50;0.20;;;8.70;99.90;;;;;;6168018;23;20094;-82
2023/04/24 06:23:47;;;;;;;0.23;0.20;;;8.70;99.90;;;;;;6218412;23;20016;-82
2023/04/24 06:26:13;;;;;;;0.47;0.40;;;8.80;99.90;;;;;;6246549;23;20369;-82
2023/04/24 06:28:39;;;;;;;0.10;0.10;;;8.80;99.90;;;;;;6195545;23;20328;-82
2023/04/24 06:31:05;;;;;;;0.10;0.10;;;8.90;99.90;;;;;;6220172;23;20020;-82
2023/04/24 06:33:30;;;;;;;0.07;0.07;;;8.90;99.90;;;;;;6194985;23;20016;-83
2023/04/24 06:35:56;;;;;;;0.43;0.20;;;8.90;99.90;;;;;;6195459;23;20030;-84
2023/04/24 06:38:22;;;;;;;0.00;0.00;;;8.90;99.90;;;;;;6194714;23;20016;-83
2023/04/24 06:40:47;;;;;;;0.30;0.13;;;8.90;99.90;;;;;;6194497;23;20019;-83
2023/04/24 06:43:14;;;;;;;0.20;0.20;;;8.90;99.90;;;;;;6194630;23;20012;-88
2023/04/24 06:45:40;;;;;;;;;;;9.00;99.90;;;;;;6219487;23;20043;-84
2023/04/24 06:48:06;;;;;;;0.03;0.03;;;9.00;99.90;;;;;;6169589;23;19946;-84
2023/04/24 06:50:31;;;;;;;0.10;0.10;;;9.00;99.90;;;;;;6246791;23;20091;-83
2023/04/24 06:52:57;;;;;;;0.27;0.20;;;9.10;99.90;;;;;;6170865;23;20020;-84
2023/04/24 06:55:23;;;;;;;0.10;0.10;;;9.10;99.90;;;;;;6220188;23;20023;-84
2023/04/24 06:57:48;;;;;;;0.03;0.03;;;9.20;99.90;;;;;;6170340;23;20027;-83
2023/04/24 07:00:14;;;;;;;0.10;0.10;;;9.20;99.90;;;;;;6219770;23;20020;-84
2023/04/24 07:02:40;;;;;;;0.20;0.20;;;9.20;99.90;;;;;;6219936;23;20016;-83
2023/04/24 07:05:08;;;;;;;0.73;0.10;;;9.30;99.90;;;;;;6219661;23;20074;-84
2023/04/24 07:07:34;;;;;;;0.10;0.10;;;9.30;99.90;;;;;;6195299;23;20099;-83
2023/04/24 07:10:00;;;;;;;0.22;0.10;;;9.30;99.90;;;;;;6247084;23;20020;-84
2023/04/24 07:12:26;;;;;;;0.30;0.20;;;9.30;99.90;;;;;;6194752;23;20425;-84
2023/04/24 07:14:51;;;;;;;0.70;0.40;;;9.30;99.90;;;;;;6194688;23;20073;-85
2023/04/24 07:17:17;;;;;;;0.97;0.30;;;9.30;99.90;;;;;;6194716;23;20020;-84
2023/04/24 07:19:43;;;;;;;0.20;0.10;;;9.40;99.90;;;;;;6194983;23;20016;-84
2023/04/24 07:22:08;;;;;;;0.10;0.10;;;9.50;99.90;;;;;;6170353;23;20055;-85
2023/04/24 07:24:34;;;;;;;0.10;0.10;;;9.50;99.90;;;;;;6194750;23;20051;-84
2023/04/24 07:27:03;;;;;;;0.17;0.17;;;9.50;99.90;;;;;;6170196;23;20074;-84
2023/04/24 07:29:29;;;;;;;0.30;0.20;;;9.40;99.90;;;;;;6195369;23;20070;-84
2023/04/24 07:31:56;;;;;;;0.47;0.30;;;9.50;99.90;;;;;;6169886;23;20016;-84
2023/04/24 07:34:21;;;;;;;0.28;0.28;;;9.40;99.90;;;;;;6194999;23;20054;-84
2023/04/24 07:36:47;;;;;;;0.30;0.30;;;9.50;99.90;;;;;;6219172;23;20353;-84
2023/04/24 07:39:13;;;;;;;0.57;0.20;;;9.40;99.90;;;;;;6219696;23;20142;-84
2023/04/24 07:41:39;;;;;;;0.20;0.20;;;9.50;99.90;;;;;;6194578;23;20027;-89
2023/04/24 07:44:05;;;;;;;0.40;0.20;;;9.40;99.90;;;;;;6194270;23;20020;-84
2023/04/24 07:46:30;;;;;;;0.10;0.10;;;9.40;99.90;;;;;;6219416;23;20016;-83
2023/04/24 07:48:56;;;;;;;0.13;0.13;;;9.40;99.90;;;;;;6246114;23;20301;-82
2023/04/24 07:51:22;;;;;;;0.53;0.30;;;9.40;99.90;;;;;;6194566;23;20020;-83
2023/04/24 07:53:47;;;;;;;0.17;0.17;;;9.40;99.90;;;;;;6194637;23;20095;-82
2023/04/24 07:56:13;;;;;;;0.10;0.10;;;9.30;99.90;;;;;;6246607;23;20142;-84
2023/04/24 07:58:39;;;;;;;0.30;0.30;;;9.30;99.90;;;;;;6219503;23;20024;-84
2023/04/24 08:01:05;;;;;;;0.10;0.10;;;9.30;99.90;;;;;;6219794;23;20101;-83
2023/04/24 08:03:31;;;;;;;0.10;0.10;;;9.20;99.90;;;;;;6246259;23;20020;-83
2023/04/24 08:05:56;;;;;;;0.40;0.20;;;9.20;99.90;;;;;;6195118;23;20480;-82
2023/04/24 08:08:22;;;;;;;0.10;0.10;;;9.20;99.90;;;;;;6246380;23;20453;-83
2023/04/24 08:10:49;;;;;;;0.35;0.30;;;9.20;99.90;;;;;;6219983;23;20387;-84
2023/04/24 08:13:15;;;;;;;0.00;0.00;;;9.10;99.90;;;;;;6220298;23;20016;-79
2023/04/24 08:15:40;;;;;;;0.10;0.10;;;9.10;99.90;;;;;;6224404;23;20316;-85
2023/04/24 08:18:07;;;;;;;0.27;0.03;;;9.10;99.90;;;;;;6194402;23;20313;-83
2023/04/24 08:20:32;;;;;;;0.10;0.10;;;9.10;99.90;;;;;;6193426;23;20016;-83
2023/04/24 08:22:58;;;;;;;0.07;0.07;;;9.10;99.90;;;;;;6219320;23;20047;-84
2023/04/24 08:25:24;;;;;;;0.43;0.43;;;9.10;99.90;;;;;;6219233;23;20030;-82
2023/04/24 08:27:51;;;;;;;0.17;0.10;;;9.10;99.90;;;;;;6219333;23;20360;-83
2023/04/24 08:30:17;;;;;;;0.50;0.20;;;9.10;99.90;;;;;;6244957;23;20285;-88
2023/04/24 08:32:43;;;;;;;0.35;0.35;;;9.10;99.90;;;;;;6213109;23;20016;-87
2023/04/24 08:35:09;;;;;;;2.13;0.67;;;9.00;99.90;;;;;;6188724;23;20058;-88
2023/04/24 08:37:35;;;;;;;0.88;0.47;;;9.00;99.90;;;;;;6241177;23;20219;-84
2023/04/24 08:40:06;;;;;;;0.93;0.73;;;9.00;99.90;;;;;;6188581;23;20032;-85
2023/04/24 08:42:34;;;;;;;0.85;0.43;;;9.00;99.90;;;;;;6240897;23;20023;-85
2023/04/24 08:45:00;;;;;;;0.85;0.57;;;9.00;99.90;;;;;;6213252;23;20019;-88
2023/04/24 08:47:27;;;;;;;1.70;0.50;;;8.90;99.90;;;;;;6173615;23;20016;-86
2023/04/24 08:49:55;;;;;;;1.98;0.60;;;8.90;99.90;;;;;;6217831;23;20016;-82
2023/04/24 08:52:21;;;;;;;0.98;0.70;;;8.80;99.90;;;;;;6218425;23;20023;-83
2023/04/24 08:54:48;;;;;;;2.67;1.00;;;8.80;99.90;;;;;;6218664;23;20024;-84
2023/04/24 08:57:15;;;;;;;1.10;0.70;;;8.70;99.90;;;;;;6218485;23;20038;-83
2023/04/24 08:59:41;;;;;;;;;;;8.70;99.90;;;;;;6245739;23;20078;-82
2023/04/24 09:02:10;;;;;;;0.73;0.30;;;8.70;99.90;;;;;;6193339;23;19915;-83
2023/04/24 09:04:37;;;;;;;1.27;0.80;;;8.60;99.90;;;;;;6218363;23;20091;-83
2023/04/24 09:07:03;;;;;;;;;;;8.60;99.90;;;;;;6219214;23;20326;-83
2023/04/24 09:09:32;;;;;;;1.75;0.73;;;8.60;99.90;;;;;;6217916;23;19915;-87
2023/04/24 09:11:58;;;;;;;0.68;0.68;;;8.50;99.90;;;;;;6217964;23;20096;-84
2023/04/24 09:14:24;;;;;;;2.45;0.70;;;8.50;99.90;;;;;;6219080;23;20395;-83
2023/04/24 09:16:50;;;;;;;1.35;0.57;;;8.90;99.90;;;;;;6168974;23;20314;-83
2023/04/24 09:19:16;;;;;;;2.55;1.10;;;8.50;99.90;;;;;;6218599;23;20031;-83
2023/04/24 09:21:46;;;;;;;2.08;1.10;;;8.40;99.90;;;;;;6218072;23;20020;-83
2023/04/24 09:24:24;;;;;;;2.83;1.05;;;8.40;99.90;;;;;;6219451;23;20083;-83
2023/04/24 09:27:01;;;;;;;2.40;0.90;;;8.30;99.90;;;;;;6245281;23;20023;-85
2023/04/24 09:29:27;;;;;;;2.17;1.27;;;8.30;99.90;;;;;;6193889;23;20095;-88
2023/04/24 09:31:53;;;;;;;1.65;0.73;;;8.30;99.90;;;;;;6193159;23;20020;-85
2023/04/24 09:34:24;;;;;;;1.20;0.75;;;8.40;99.90;;;;;;6193512;23;20050;-81
2023/04/24 09:36:51;;;;;;;1.60;0.90;;;8.30;99.90;;;;;;6218304;23;20023;-82
2023/04/24 09:39:21;;;;;;;2.85;1.08;;;8.30;99.90;;;;;;6245684;23;20016;-82
2023/04/24 09:41:52;;;;;;;0.63;0.60;;;8.30;99.90;;;;;;6218229;23;20107;-82
2023/04/24 09:44:23;;;;;;;1.73;0.85;;;8.40;99.90;;;;;;6245266;23;20020;-83
2023/04/24 09:46:55;;;;;;;1.42;0.45;;;8.40;99.90;;;;;;6193718;23;20499;-83
2023/04/24 09:49:26;;;;;;;1.67;0.77;;;8.40;99.90;;;;;;6218568;23;20020;-85
2023/04/24 09:52:02;;;;;;;1.05;0.85;;;8.50;99.90;;;;;;6245249;23;20051;-83
2023/04/24 09:54:29;;;;;;;0.45;0.45;;;8.50;99.90;;;;;;6218619;23;20019;-87
2023/04/24 09:56:55;;;;;;;0.63;0.57;;;8.50;99.90;;;;;;6192576;23;20512;-82
2023/04/24 09:59:20;;;;;;;0.30;0.30;;;8.50;99.90;;;;;;6193584;23;20054;-82
2023/04/24 10:01:48;;;;;;;0.80;0.77;;;8.40;99.90;;;;;;6218113;23;20094;-83
2023/04/24 10:04:18;;;;;;;1.15;0.80;;;8.50;99.90;;;;;;6219119;23;20452;-83
2023/04/24 10:06:44;;;;;;;1.40;0.85;;;8.50;99.90;;;;;;6218569;23;20016;-83
2023/04/24 10:09:11;;;;;;;1.38;0.38;;;8.50;99.90;;;;;;6193636;23;20020;-83
2023/04/24 10:11:41;;;;;;;2.28;0.55;;;8.50;99.90;;;;;;6193766;23;20437;-83
2023/04/24 10:14:07;;;;;;;1.13;0.73;;;8.50;99.90;;;;;;6218264;23;20091;-83
2023/04/24 10:16:33;;;;;;;0.93;0.80;;;8.50;99.90;;;;;;6193741;23;20020;-89
2023/04/24 10:19:00;;;;;;;1.60;0.70;;;8.50;99.90;;;;;;6169108;23;20054;-83
2023/04/24 10:21:26;;;;;;;0.88;0.52;;;8.50;99.90;;;;;;6194296;23;20012;-82
2023/04/24 10:23:54;;;;;;;1.90;0.45;;;8.40;99.90;;;;;;6218703;23;20099;-83
2023/04/24 10:26:20;;;;;;;1.85;1.02;;;8.40;99.90;;;;;;6193268;23;20016;-83
2023/04/24 10:28:46;;;;;;;0.60;0.60;;;8.50;99.90;;;;;;6218528;23;20055;-84
2023/04/24 10:31:14;;;;;;;0.30;0.20;;;8.60;99.90;;;;;;6218567;23;20090;-83
2023/04/24 10:33:43;;;;;;;0.55;0.40;;;8.60;99.90;;;;;;6218712;23;20027;-84
2023/04/24 10:36:13;;;;;;;0.50;0.40;;;8.50;99.90;;;;;;6245070;23;20091;-83
2023/04/24 10:38:41;;;;;;;2.28;0.88;;;8.60;99.90;;;;;;6218657;23;20020;-83
2023/04/24 10:41:09;;;;;;;0.60;0.60;;;8.60;99.90;;;;;;6193475;23;20525;-87
2023/04/24 10:43:35;;;;;;;0.90;0.50;;;8.60;99.90;;;;;;6193580;23;20023;-85
2023/04/24 10:46:03;;;;;;;0.65;0.32;;;8.70;99.90;;;;;;6193233;23;20329;-83
2023/04/24 10:48:29;;;;;;;1.05;0.55;;;8.70;99.90;;;;;;6218410;23;20020;-82
2023/04/24 10:50:55;;;;;;;0.55;0.43;;;8.60;99.90;;;;;;6217909;23;20019;-85
2023/04/24 10:53:28;;;;;;;1.15;0.45;;;8.60;99.90;;;;;;6218596;23;20023;-84
2023/04/24 10:55:58;;;;;;;0.77;0.15;;;8.50;99.90;;;;;;6217866;23;20051;-85
2023/04/24 10:58:35;;;;;;;0.20;0.20;;;8.60;99.90;;;;;;6218105;23;20066;-84
2023/04/24 11:01:01;;;;;;;0.52;0.20;;;8.60;99.90;;;;;;6218114;23;20055;-86
2023/04/24 11:03:32;;;;;;;0.55;0.22;;;8.60;99.90;;;;;;6193087;23;20033;-85
2023/04/24 11:06:08;;;;;;;1.42;0.50;;;8.60;99.90;;;;;;6218060;23;20020;-84
2023/04/24 11:08:44;;;;;;;1.97;0.60;;;8.60;99.90;;;;;;6218179;23;20048;-83
2023/04/24 11:11:18;;;;;;;0.40;0.32;;;8.70;99.90;;;;;;6251513;23;20054;-83
2023/04/24 11:13:56;;;;;;;0.40;0.40;;;8.70;99.90;;;;;;6225288;23;20016;-84
2023/04/24 11:16:53;;;;;;;0.57;0.38;;;8.80;99.90;;;;;;6198958;23;20016;-83
2023/04/24 11:19:25;;;;;;;0.10;0.10;;;8.90;99.90;;;;;;6219712;23;20024;-84
2023/04/24 11:22:01;;;;;;;0.73;0.52;;;9.00;99.90;;;;;;6194826;23;20071;-84
2023/04/24 11:24:39;;;;;;;0.23;0.23;;;9.10;99.90;;;;;;6220056;23;20099;-84
2023/04/24 11:27:05;;;;;;;0.95;0.68;;;9.10;99.90;;;;;;6246756;23;20318;-84
2023/04/24 11:30:00;;;;;;;0.40;0.30;;;9.00;99.90;;;;;;6194388;23;20107;-84
2023/04/24 11:32:36;;;;;;;0.25;0.17;;;9.00;99.90;;;;;;6247106;23;20019;-83
2023/04/24 11:35:05;;;;;;;0.70;0.50;;;8.90;99.90;;;;;;6219766;23;20441;-84
2023/04/24 11:37:39;;;;;;;0.32;0.20;;;8.80;99.90;;;;;;6247333;23;20020;-84
2023/04/24 11:40:13;;;;;;;1.95;1.35;;;8.80;99.90;;;;;;6248197;23;20061;-85
2023/04/24 11:42:40;;;;;;;0.03;0.03;;;8.80;99.90;;;;;;6257317;23;20016;-84
2023/04/24 11:45:22;;;;;;;0.25;0.13;;;8.80;99.90;;;;;;6224537;23;20031;-83
2023/04/24 11:47:48;;;;;;;0.65;0.32;;;8.80;99.90;;;;;;6260053;23;20012;-84
2023/04/24 11:50:16;;;;;;;0.20;0.20;;;8.90;99.90;;;;;;6230674;23;20445;-84
2023/04/24 11:52:47;;;;;;;2.03;0.40;;;9.00;99.90;;;;;;6228823;23;20020;-85
2023/04/24 11:55:19;;;;;;;0.82;0.47;;;9.00;99.90;;;;;;6256323;23;20020;-84
2023/04/24 11:57:53;;;;;;;0.00;0.00;;;9.00;99.90;;;;;;6228406;23;20016;-85
2023/04/24 12:00:21;;;;;;;0.40;0.40;;;9.00;99.90;;;;;;6228421;23;20064;-84
2023/04/24 12:02:47;;;;;;;0.50;0.10;;;9.00;99.90;;;;;;6226910;23;20095;-84
2023/04/24 12:05:26;;;;;;;0.30;0.15;;;8.90;99.90;;;;;;6252073;23;20028;-84
2023/04/24 12:07:53;;;;;;;0.10;0.10;;;8.90;99.90;;;;;;6200552;23;20106;-84
2023/04/24 12:10:22;;;;;;;;;;;8.80;99.90;;;;;;6226467;23;20012;-83
2023/04/24 12:12:51;;;;;;;0.10;0.10;;;8.70;99.90;;;;;;6224453;23;19916;-84
2023/04/24 12:15:18;;;;;;;0.45;0.20;;;8.70;99.90;;;;;;6198893;23;20436;-83
2023/04/24 12:17:47;;;;;;;0.17;0.17;;;8.60;99.90;;;;;;6248564;23;20530;-87
2023/04/24 12:20:14;;;;;;;0.25;0.25;;;8.60;99.90;;;;;;6249653;23;20016;-87
2023/04/24 12:22:47;;;;;;;;;;;8.60;99.90;;;;;;6222415;23;20016;-88
2023/04/24 12:25:14;;;;;;;0.65;0.22;;;8.50;99.90;;;;;;6194760;23;20330;-87
2023/04/24 12:27:40;;;;;;;0.32;0.20;;;8.50;99.90;;;;;;6219134;23;20383;-92
2023/04/24 12:30:10;;;;;;;0.27;0.27;;;8.50;99.90;;;;;;6219198;23;20012;-87
2023/04/24 12:32:45;;;;;;;0.47;0.20;;;8.50;99.90;;;;;;6194234;23;20016;-88
2023/04/24 12:35:11;;;;;;;0.38;0.17;;;8.60;99.90;;;;;;6245568;23;20024;-87
2023/04/24 12:37:39;;;;;;;0.10;0.10;;;8.70;99.90;;;;;;6219453;23;20020;-87
2023/04/24 12:40:10;;;;;;;0.47;0.47;;;8.80;99.90;;;;;;6219102;23;20483;-87
2023/04/24 12:42:49;;;;;;;0.00;0.00;;;8.90;99.90;;;;;;6219265;23;20027;-88
2023/04/24 12:45:16;;;;;;;0.20;0.00;;;8.90;99.90;;;;;;6245767;23;20049;-86
2023/04/24 12:47:43;;;;;;;0.10;0.10;;;8.90;99.90;;;;;;6194382;23;20020;-85
2023/04/24 12:50:14;;;;;;;0.52;0.25;;;8.90;99.90;;;;;;6218550;23;20023;-85
2023/04/24 12:52:41;;;;;;;0.20;0.17;;;8.90;99.90;;;;;;6219371;23;20016;-85
2023/04/24 12:55:07;;;;;;;1.83;0.10;;;8.90;99.90;;;;;;6218344;23;20476;-86
2023/04/24 12:57:34;;;;;;;0.03;0.03;;;8.90;99.90;;;;;;6218907;23;20047;-85